sensor_id;sensor_type;location;lat;lon;timestamp;P1;durP1;ratioP1;P2;durP2;ratioP2
51080;SDS011;37130;55.670;37.596;2023-07-22T00:00:05;0.00;;;0.00;;
51080;SDS011;37130;55.670;37.596;2023-07-22T00:02:36;0.00;;;0.00;;
51080;SDS011;37130;55.670;37.596;2023-07-22T00:05:05;0.00;;;0.00;;
51080;SDS011;37130;55.670;37.596;2023-07-22T00:07:33;0.00;;;0.00;;
51080;SDS011;37130;55.670;37.596;2023-07-22T00:10:01;0.00;;;0.00;;
51080;SDS011;37130;55.670;37.596;2023-07-22T00:12:30;0.00;;;0.00;;
51080;SDS011;37130;55.670;37.596;2023-07-22T00:14:58;0.00;;;0.00;;
51080;SDS011;37130;55.670;37.596;2023-07-22T00:17:26;0.00;;;0.00;;
51080;SDS011;37130;55.670;37.596;2023-07-22T00:19:53;0.00;;;0.00;;
51080;SDS011;37130;55.670;37.596;2023-07-22T00:22:21;0.00;;;0.00;;
51080;SDS011;37130;55.670;37.596;2023-07-22T00:24:48;0.00;;;0.00;;
51080;SDS011;37130;55.670;37.596;2023-07-22T00:27:16;0.00;;;0.00;;
51080;SDS011;37130;55.670;37.596;2023-07-22T00:29:43;0.00;;;0.00;;
51080;SDS011;37130;55.670;37.596;2023-07-22T00:32:11;0.00;;;0.00;;
51080;SDS011;37130;55.670;37.596;2023-07-22T00:34:39;0.00;;;0.00;;
51080;SDS011;37130;55.670;37.596;2023-07-22T00:37:06;0.00;;;0.00;;
51080;SDS011;37130;55.670;37.596;2023-07-22T00:39:34;0.00;;;0.00;;
51080;SDS011;37130;55.670;37.596;2023-07-22T00:42:02;0.00;;;0.00;;
51080;SDS011;37130;55.670;37.596;2023-07-22T00:44:30;0.00;;;0.00;;
51080;SDS011;37130;55.670;37.596;2023-07-22T00:46:57;0.00;;;0.00;;
51080;SDS011;37130;55.670;37.596;2023-07-22T00:49:25;0.00;;;0.00;;
51080;SDS011;37130;55.670;37.596;2023-07-22T00:51:56;0.00;;;0.00;;
51080;SDS011;37130;55.670;37.596;2023-07-22T00:54:29;0.00;;;0.00;;
51080;SDS011;37130;55.670;37.596;2023-07-22T00:56:58;0.00;;;0.00;;
51080;SDS011;37130;55.670;37.596;2023-07-22T00:59:26;0.00;;;0.00;;
51080;SDS011;37130;55.670;37.596;2023-07-22T01:01:55;0.00;;;0.00;;
51080;SDS011;37130;55.670;37.596;2023-07-22T01:04:22;0.00;;;0.00;;
51080;SDS011;37130;55.670;37.596;2023-07-22T01:06:50;0.00;;;0.00;;
51080;SDS011;37130;55.670;37.596;2023-07-22T01:09:22;0.00;;;0.00;;
51080;SDS011;37130;55.670;37.596;2023-07-22T01:11:49;0.00;;;0.00;;
51080;SDS011;37130;55.670;37.596;2023-07-22T01:14:17;0.00;;;0.00;;
51080;SDS011;37130;55.670;37.596;2023-07-22T01:16:45;0.00;;;0.00;;
51080;SDS011;37130;55.670;37.596;2023-07-22T01:19:13;0.00;;;0.00;;
51080;SDS011;37130;55.670;37.596;2023-07-22T01:21:46;0.00;;;0.00;;
51080;SDS011;37130;55.670;37.596;2023-07-22T01:24:15;0.00;;;0.00;;
51080;SDS011;37130;55.670;37.596;2023-07-22T01:26:43;0.00;;;0.00;;
51080;SDS011;37130;55.670;37.596;2023-07-22T01:29:11;0.00;;;0.00;;
51080;SDS011;37130;55.670;37.596;2023-07-22T01:31:39;0.00;;;0.00;;
51080;SDS011;37130;55.670;37.596;2023-07-22T01:34:07;0.00;;;0.00;;
51080;SDS011;37130;55.670;37.596;2023-07-22T01:36:35;0.00;;;0.00;;
51080;SDS011;37130;55.670;37.596;2023-07-22T01:39:02;0.00;;;0.00;;
51080;SDS011;37130;55.670;37.596;2023-07-22T01:41:32;0.00;;;0.00;;
51080;SDS011;37130;55.670;37.596;2023-07-22T01:44:00;0.00;;;0.00;;
51080;SDS011;37130;55.670;37.596;2023-07-22T01:46:28;0.00;;;0.00;;
51080;SDS011;37130;55.670;37.596;2023-07-22T01:48:56;0.00;;;0.00;;
51080;SDS011;37130;55.670;37.596;2023-07-22T01:51:24;0.00;;;0.00;;
51080;SDS011;37130;55.670;37.596;2023-07-22T01:53:52;0.00;;;0.00;;
51080;SDS011;37130;55.670;37.596;2023-07-22T01:56:20;0.00;;;0.00;;
51080;SDS011;37130;55.670;37.596;2023-07-22T01:58:48;0.00;;;0.00;;
51080;SDS011;37130;55.670;37.596;2023-07-22T02:01:15;0.00;;;0.00;;
51080;SDS011;37130;55.670;37.596;2023-07-22T02:03:43;0.00;;;0.00;;
51080;SDS011;37130;55.670;37.596;2023-07-22T02:06:11;0.00;;;0.00;;
51080;SDS011;37130;55.670;37.596;2023-07-22T02:08:39;0.00;;;0.00;;
51080;SDS011;37130;55.670;37.596;2023-07-22T02:11:07;0.00;;;0.00;;
51080;SDS011;37130;55.670;37.596;2023-07-22T02:13:36;0.00;;;0.00;;
51080;SDS011;37130;55.670;37.596;2023-07-22T02:16:04;0.00;;;0.00;;
51080;SDS011;37130;55.670;37.596;2023-07-22T02:18:32;0.00;;;0.00;;
51080;SDS011;37130;55.670;37.596;2023-07-22T02:21:00;0.00;;;0.00;;
51080;SDS011;37130;55.670;37.596;2023-07-22T02:23:28;0.00;;;0.00;;
51080;SDS011;37130;55.670;37.596;2023-07-22T02:25:55;0.00;;;0.00;;
51080;SDS011;37130;55.670;37.596;2023-07-22T02:28:24;0.00;;;0.00;;
51080;SDS011;37130;55.670;37.596;2023-07-22T02:30:52;0.00;;;0.00;;
51080;SDS011;37130;55.670;37.596;2023-07-22T02:33:21;0.00;;;0.00;;
51080;SDS011;37130;55.670;37.596;2023-07-22T02:35:51;0.10;;;0.10;;
51080;SDS011;37130;55.670;37.596;2023-07-22T02:38:19;0.00;;;0.00;;
51080;SDS011;37130;55.670;37.596;2023-07-22T02:40:46;0.00;;;0.00;;
51080;SDS011;37130;55.670;37.596;2023-07-22T02:43:14;0.00;;;0.00;;
51080;SDS011;37130;55.670;37.596;2023-07-22T02:45:42;0.00;;;0.00;;
51080;SDS011;37130;55.670;37.596;2023-07-22T02:48:11;0.00;;;0.00;;
51080;SDS011;37130;55.670;37.596;2023-07-22T02:50:38;0.00;;;0.00;;
51080;SDS011;37130;55.670;37.596;2023-07-22T02:53:07;0.00;;;0.00;;
51080;SDS011;37130;55.670;37.596;2023-07-22T02:55:35;0.00;;;0.00;;
51080;SDS011;37130;55.670;37.596;2023-07-22T02:58:03;0.00;;;0.00;;
51080;SDS011;37130;55.670;37.596;2023-07-22T03:00:32;0.00;;;0.00;;
51080;SDS011;37130;55.670;37.596;2023-07-22T03:02:59;0.08;;;0.08;;
51080;SDS011;37130;55.670;37.596;2023-07-22T03:05:29;0.10;;;0.10;;
51080;SDS011;37130;55.670;37.596;2023-07-22T03:07:57;0.10;;;0.10;;
51080;SDS011;37130;55.670;37.596;2023-07-22T03:10:25;0.10;;;0.10;;
51080;SDS011;37130;55.670;37.596;2023-07-22T03:12:53;0.10;;;0.10;;
51080;SDS011;37130;55.670;37.596;2023-07-22T03:15:23;0.20;;;0.20;;
51080;SDS011;37130;55.670;37.596;2023-07-22T03:17:53;0.20;;;0.20;;
51080;SDS011;37130;55.670;37.596;2023-07-22T03:20:22;0.20;;;0.20;;
51080;SDS011;37130;55.670;37.596;2023-07-22T03:22:51;0.30;;;0.30;;
51080;SDS011;37130;55.670;37.596;2023-07-22T03:25:19;0.30;;;0.30;;
51080;SDS011;37130;55.670;37.596;2023-07-22T03:27:47;0.40;;;0.40;;
51080;SDS011;37130;55.670;37.596;2023-07-22T03:30:17;0.40;;;0.40;;
51080;SDS011;37130;55.670;37.596;2023-07-22T03:32:45;0.40;;;0.40;;
51080;SDS011;37130;55.670;37.596;2023-07-22T03:35:15;0.40;;;0.40;;
51080;SDS011;37130;55.670;37.596;2023-07-22T03:37:46;0.40;;;0.40;;
51080;SDS011;37130;55.670;37.596;2023-07-22T03:40:14;0.50;;;0.50;;
51080;SDS011;37130;55.670;37.596;2023-07-22T03:42:50;0.60;;;0.60;;
51080;SDS011;37130;55.670;37.596;2023-07-22T03:45:18;0.70;;;0.70;;
51080;SDS011;37130;55.670;37.596;2023-07-22T03:47:51;0.80;;;0.80;;
51080;SDS011;37130;55.670;37.596;2023-07-22T03:50:20;0.90;;;0.90;;
51080;SDS011;37130;55.670;37.596;2023-07-22T03:52:47;0.90;;;0.90;;
51080;SDS011;37130;55.670;37.596;2023-07-22T03:55:15;0.90;;;0.90;;
51080;SDS011;37130;55.670;37.596;2023-07-22T03:57:42;0.80;;;0.80;;
51080;SDS011;37130;55.670;37.596;2023-07-22T04:00:10;1.00;;;1.00;;
51080;SDS011;37130;55.670;37.596;2023-07-22T04:02:38;0.93;;;0.93;;
51080;SDS011;37130;55.670;37.596;2023-07-22T04:05:07;0.80;;;0.80;;
51080;SDS011;37130;55.670;37.596;2023-07-22T04:07:35;1.17;;;1.17;;
51080;SDS011;37130;55.670;37.596;2023-07-22T04:10:03;1.10;;;1.10;;
51080;SDS011;37130;55.670;37.596;2023-07-22T04:12:32;1.25;;;1.25;;
51080;SDS011;37130;55.670;37.596;2023-07-22T04:15:00;1.40;;;1.40;;
51080;SDS011;37130;55.670;37.596;2023-07-22T04:17:32;1.60;;;1.60;;
51080;SDS011;37130;55.670;37.596;2023-07-22T04:20:00;1.63;;;1.63;;
51080;SDS011;37130;55.670;37.596;2023-07-22T04:22:31;1.60;;;1.60;;
51080;SDS011;37130;55.670;37.596;2023-07-22T04:24:58;1.83;;;1.83;;
51080;SDS011;37130;55.670;37.596;2023-07-22T04:27:30;2.00;;;2.00;;
51080;SDS011;37130;55.670;37.596;2023-07-22T04:29:57;1.90;;;1.90;;
51080;SDS011;37130;55.670;37.596;2023-07-22T04:32:25;1.95;;;1.95;;
51080;SDS011;37130;55.670;37.596;2023-07-22T04:34:52;2.50;;;2.40;;
51080;SDS011;37130;55.670;37.596;2023-07-22T04:37:21;2.40;;;2.30;;
51080;SDS011;37130;55.670;37.596;2023-07-22T04:39:49;2.70;;;2.60;;
51080;SDS011;37130;55.670;37.596;2023-07-22T04:42:17;2.70;;;2.60;;
51080;SDS011;37130;55.670;37.596;2023-07-22T04:44:45;2.55;;;2.45;;
51080;SDS011;37130;55.670;37.596;2023-07-22T04:47:12;2.75;;;2.65;;
51080;SDS011;37130;55.670;37.596;2023-07-22T04:49:40;3.13;;;3.03;;
51080;SDS011;37130;55.670;37.596;2023-07-22T04:52:07;3.17;;;3.08;;
51080;SDS011;37130;55.670;37.596;2023-07-22T04:54:35;2.90;;;2.80;;
51080;SDS011;37130;55.670;37.596;2023-07-22T04:57:03;3.70;;;3.60;;
51080;SDS011;37130;55.670;37.596;2023-07-22T04:59:30;3.65;;;3.55;;
51080;SDS011;37130;55.670;37.596;2023-07-22T05:01:58;3.65;;;3.55;;
51080;SDS011;37130;55.670;37.596;2023-07-22T05:04:26;4.00;;;3.90;;
51080;SDS011;37130;55.670;37.596;2023-07-22T05:06:53;4.05;;;3.95;;
51080;SDS011;37130;55.670;37.596;2023-07-22T05:09:21;4.25;;;4.15;;
51080;SDS011;37130;55.670;37.596;2023-07-22T05:11:49;4.95;;;4.75;;
51080;SDS011;37130;55.670;37.596;2023-07-22T05:14:16;5.63;;;5.43;;
51080;SDS011;37130;55.670;37.596;2023-07-22T05:16:44;5.50;;;5.30;;
51080;SDS011;37130;55.670;37.596;2023-07-22T05:19:12;5.35;;;5.15;;
51080;SDS011;37130;55.670;37.596;2023-07-22T05:21:40;6.55;;;6.35;;
51080;SDS011;37130;55.670;37.596;2023-07-22T05:24:08;6.47;;;6.28;;
51080;SDS011;37130;55.670;37.596;2023-07-22T05:26:36;7.15;;;6.85;;
51080;SDS011;37130;55.670;37.596;2023-07-22T05:29:03;7.30;;;7.00;;
51080;SDS011;37130;55.670;37.596;2023-07-22T05:31:31;6.55;;;6.35;;
51080;SDS011;37130;55.670;37.596;2023-07-22T05:33:58;6.80;;;6.60;;
51080;SDS011;37130;55.670;37.596;2023-07-22T05:36:26;8.00;;;7.70;;
51080;SDS011;37130;55.670;37.596;2023-07-22T05:38:54;8.10;;;7.80;;
51080;SDS011;37130;55.670;37.596;2023-07-22T05:41:22;8.75;;;8.45;;
51080;SDS011;37130;55.670;37.596;2023-07-22T05:43:50;8.65;;;8.35;;
51080;SDS011;37130;55.670;37.596;2023-07-22T05:46:17;8.30;;;8.00;;
51080;SDS011;37130;55.670;37.596;2023-07-22T05:48:45;9.52;;;9.13;;
51080;SDS011;37130;55.670;37.596;2023-07-22T05:51:13;9.18;;;8.88;;
51080;SDS011;37130;55.670;37.596;2023-07-22T05:53:42;9.73;;;9.32;;
51080;SDS011;37130;55.670;37.596;2023-07-22T05:56:09;10.02;;;9.63;;
51080;SDS011;37130;55.670;37.596;2023-07-22T05:58:37;9.68;;;9.27;;
51080;SDS011;37130;55.670;37.596;2023-07-22T06:01:05;10.57;;;10.18;;
51080;SDS011;37130;55.670;37.596;2023-07-22T06:03:33;10.35;;;9.95;;
51080;SDS011;37130;55.670;37.596;2023-07-22T06:06:00;10.38;;;9.98;;
51080;SDS011;37130;55.670;37.596;2023-07-22T06:08:28;10.55;;;10.15;;
51080;SDS011;37130;55.670;37.596;2023-07-22T06:10:56;12.45;;;11.95;;
51080;SDS011;37130;55.670;37.596;2023-07-22T06:13:24;12.35;;;11.85;;
51080;SDS011;37130;55.670;37.596;2023-07-22T06:15:51;12.65;;;12.15;;
51080;SDS011;37130;55.670;37.596;2023-07-22T06:18:19;13.05;;;12.55;;
51080;SDS011;37130;55.670;37.596;2023-07-22T06:20:47;12.52;;;12.02;;
51080;SDS011;37130;55.670;37.596;2023-07-22T06:23:14;12.10;;;11.60;;
51080;SDS011;37130;55.670;37.596;2023-07-22T06:25:43;13.35;;;12.85;;
51080;SDS011;37130;55.670;37.596;2023-07-22T06:28:10;13.60;;;13.10;;
51080;SDS011;37130;55.670;37.596;2023-07-22T06:30:38;13.40;;;12.90;;
51080;SDS011;37130;55.670;37.596;2023-07-22T06:33:05;14.00;;;13.45;;
51080;SDS011;37130;55.670;37.596;2023-07-22T06:35:33;14.43;;;13.82;;
51080;SDS011;37130;55.670;37.596;2023-07-22T06:38:01;13.98;;;13.43;;
51080;SDS011;37130;55.670;37.596;2023-07-22T06:40:29;15.75;;;15.15;;
51080;SDS011;37130;55.670;37.596;2023-07-22T06:42:56;16.10;;;15.50;;
51080;SDS011;37130;55.670;37.596;2023-07-22T06:45:24;16.63;;;15.95;;
51080;SDS011;37130;55.670;37.596;2023-07-22T06:47:52;16.35;;;15.70;;
51080;SDS011;37130;55.670;37.596;2023-07-22T06:50:19;14.63;;;14.02;;
51080;SDS011;37130;55.670;37.596;2023-07-22T06:52:46;12.13;;;11.63;;
51080;SDS011;37130;55.670;37.596;2023-07-22T06:55:14;9.20;;;8.90;;
51080;SDS011;37130;55.670;37.596;2023-07-22T06:57:42;7.68;;;7.38;;
51080;SDS011;37130;55.670;37.596;2023-07-22T07:00:10;7.60;;;7.30;;
51080;SDS011;37130;55.670;37.596;2023-07-22T07:02:38;7.45;;;7.15;;
51080;SDS011;37130;55.670;37.596;2023-07-22T07:05:06;8.20;;;7.90;;
51080;SDS011;37130;55.670;37.596;2023-07-22T07:07:33;7.70;;;7.40;;
51080;SDS011;37130;55.670;37.596;2023-07-22T07:10:01;7.20;;;6.90;;
51080;SDS011;37130;55.670;37.596;2023-07-22T07:12:31;6.18;;;5.97;;
51080;SDS011;37130;55.670;37.596;2023-07-22T07:14:59;6.40;;;6.20;;
51080;SDS011;37130;55.670;37.596;2023-07-22T07:17:33;5.93;;;5.72;;
51080;SDS011;37130;55.670;37.596;2023-07-22T07:20:01;5.72;;;5.53;;
51080;SDS011;37130;55.670;37.596;2023-07-22T07:22:30;5.57;;;5.38;;
51080;SDS011;37130;55.670;37.596;2023-07-22T07:24:57;5.63;;;5.43;;
51080;SDS011;37130;55.670;37.596;2023-07-22T07:27:25;6.90;;;6.70;;
51080;SDS011;37130;55.670;37.596;2023-07-22T07:29:54;7.57;;;7.28;;
51080;SDS011;37130;55.670;37.596;2023-07-22T07:32:22;7.82;;;7.53;;
51080;SDS011;37130;55.670;37.596;2023-07-22T07:34:51;7.05;;;6.75;;
51080;SDS011;37130;55.670;37.596;2023-07-22T07:37:19;7.07;;;6.78;;
51080;SDS011;37130;55.670;37.596;2023-07-22T07:39:47;5.97;;;5.78;;
51080;SDS011;37130;55.670;37.596;2023-07-22T07:42:14;4.90;;;4.70;;
51080;SDS011;37130;55.670;37.596;2023-07-22T07:44:42;4.18;;;4.07;;
51080;SDS011;37130;55.670;37.596;2023-07-22T07:47:10;4.03;;;3.92;;
51080;SDS011;37130;55.670;37.596;2023-07-22T07:49:37;3.92;;;3.83;;
51080;SDS011;37130;55.670;37.596;2023-07-22T07:52:05;4.05;;;3.95;;
51080;SDS011;37130;55.670;37.596;2023-07-22T07:54:33;3.80;;;3.70;;
51080;SDS011;37130;55.670;37.596;2023-07-22T07:57:00;4.38;;;4.28;;
51080;SDS011;37130;55.670;37.596;2023-07-22T07:59:28;4.80;;;4.60;;
51080;SDS011;37130;55.670;37.596;2023-07-22T08:01:55;3.30;;;3.20;;
51080;SDS011;37130;55.670;37.596;2023-07-22T08:04:23;2.40;;;2.30;;
51080;SDS011;37130;55.670;37.596;2023-07-22T08:06:51;2.35;;;2.25;;
51080;SDS011;37130;55.670;37.596;2023-07-22T08:09:19;2.00;;;2.00;;
51080;SDS011;37130;55.670;37.596;2023-07-22T08:11:47;2.00;;;2.00;;
51080;SDS011;37130;55.670;37.596;2023-07-22T08:14:16;1.80;;;1.80;;
51080;SDS011;37130;55.670;37.596;2023-07-22T08:16:45;1.70;;;1.70;;
51080;SDS011;37130;55.670;37.596;2023-07-22T08:19:12;1.80;;;1.80;;
51080;SDS011;37130;55.670;37.596;2023-07-22T08:21:40;2.40;;;2.30;;
51080;SDS011;37130;55.670;37.596;2023-07-22T08:24:07;2.92;;;2.83;;
51080;SDS011;37130;55.670;37.596;2023-07-22T08:26:36;4.07;;;3.97;;
51080;SDS011;37130;55.670;37.596;2023-07-22T08:29:03;4.80;;;4.60;;
51080;SDS011;37130;55.670;37.596;2023-07-22T08:31:31;5.78;;;5.57;;
51080;SDS011;37130;55.670;37.596;2023-07-22T08:33:59;5.70;;;5.50;;
51080;SDS011;37130;55.670;37.596;2023-07-22T08:36:27;5.53;;;5.32;;
51080;SDS011;37130;55.670;37.596;2023-07-22T08:38:54;4.93;;;4.72;;
51080;SDS011;37130;55.670;37.596;2023-07-22T08:41:22;3.45;;;3.35;;
51080;SDS011;37130;55.670;37.596;2023-07-22T08:43:52;2.53;;;2.42;;
51080;SDS011;37130;55.670;37.596;2023-07-22T08:46:22;1.58;;;1.58;;
51080;SDS011;37130;55.670;37.596;2023-07-22T08:48:53;1.20;;;1.20;;
51080;SDS011;37130;55.670;37.596;2023-07-22T08:51:21;0.70;;;0.70;;
51080;SDS011;37130;55.670;37.596;2023-07-22T08:53:58;0.60;;;0.60;;
51080;SDS011;37130;55.670;37.596;2023-07-22T08:56:38;0.40;;;0.40;;
51080;SDS011;37130;55.670;37.596;2023-07-22T08:59:06;0.40;;;0.40;;
51080;SDS011;37130;55.670;37.596;2023-07-22T09:01:34;0.25;;;0.25;;
51080;SDS011;37130;55.670;37.596;2023-07-22T09:04:03;0.20;;;0.20;;
51080;SDS011;37130;55.670;37.596;2023-07-22T09:06:31;0.17;;;0.17;;
51080;SDS011;37130;55.670;37.596;2023-07-22T09:09:00;0.15;;;0.15;;
51080;SDS011;37130;55.670;37.596;2023-07-22T09:11:31;0.10;;;0.10;;
51080;SDS011;37130;55.670;37.596;2023-07-22T09:13:59;0.10;;;0.10;;
51080;SDS011;37130;55.670;37.596;2023-07-22T09:16:29;0.10;;;0.10;;
51080;SDS011;37130;55.670;37.596;2023-07-22T09:18:59;0.08;;;0.08;;
51080;SDS011;37130;55.670;37.596;2023-07-22T09:21:27;0.10;;;0.10;;
51080;SDS011;37130;55.670;37.596;2023-07-22T09:23:55;0.00;;;0.00;;
51080;SDS011;37130;55.670;37.596;2023-07-22T09:26:22;0.10;;;0.10;;
51080;SDS011;37130;55.670;37.596;2023-07-22T09:28:51;0.10;;;0.10;;
51080;SDS011;37130;55.670;37.596;2023-07-22T09:31:23;0.00;;;0.00;;
51080;SDS011;37130;55.670;37.596;2023-07-22T09:33:56;0.03;;;0.03;;
51080;SDS011;37130;55.670;37.596;2023-07-22T09:36:52;0.00;;;0.00;;
51080;SDS011;37130;55.670;37.596;2023-07-22T09:39:22;0.00;;;0.00;;
51080;SDS011;37130;55.670;37.596;2023-07-22T09:41:50;0.00;;;0.00;;
51080;SDS011;37130;55.670;37.596;2023-07-22T09:44:19;0.00;;;0.00;;
51080;SDS011;37130;55.670;37.596;2023-07-22T09:46:48;0.00;;;0.00;;
51080;SDS011;37130;55.670;37.596;2023-07-22T09:49:17;0.00;;;0.00;;
51080;SDS011;37130;55.670;37.596;2023-07-22T09:51:45;0.00;;;0.00;;
51080;SDS011;37130;55.670;37.596;2023-07-22T09:54:27;0.00;;;0.00;;
51080;SDS011;37130;55.670;37.596;2023-07-22T09:56:58;0.00;;;0.00;;
51080;SDS011;37130;55.670;37.596;2023-07-22T09:59:27;0.00;;;0.00;;
51080;SDS011;37130;55.670;37.596;2023-07-22T10:01:56;0.00;;;0.00;;
51080;SDS011;37130;55.670;37.596;2023-07-22T10:04:31;0.00;;;0.00;;
51080;SDS011;37130;55.670;37.596;2023-07-22T10:07:02;0.00;;;0.00;;
51080;SDS011;37130;55.670;37.596;2023-07-22T10:09:32;0.00;;;0.00;;
51080;SDS011;37130;55.670;37.596;2023-07-22T10:12:04;0.00;;;0.00;;
51080;SDS011;37130;55.670;37.596;2023-07-22T10:14:32;0.00;;;0.00;;
51080;SDS011;37130;55.670;37.596;2023-07-22T10:17:04;0.00;;;0.00;;
51080;SDS011;37130;55.670;37.596;2023-07-22T10:19:34;0.00;;;0.00;;
51080;SDS011;37130;55.670;37.596;2023-07-22T10:22:02;0.00;;;0.00;;
51080;SDS011;37130;55.670;37.596;2023-07-22T10:24:30;0.00;;;0.00;;
51080;SDS011;37130;55.670;37.596;2023-07-22T10:26:59;0.00;;;0.00;;
51080;SDS011;37130;55.670;37.596;2023-07-22T10:29:27;0.00;;;0.00;;
51080;SDS011;37130;55.670;37.596;2023-07-22T10:31:56;0.00;;;0.00;;
51080;SDS011;37130;55.670;37.596;2023-07-22T10:34:24;0.00;;;0.00;;
51080;SDS011;37130;55.670;37.596;2023-07-22T10:36:53;0.00;;;0.00;;
51080;SDS011;37130;55.670;37.596;2023-07-22T10:39:24;0.00;;;0.00;;
51080;SDS011;37130;55.670;37.596;2023-07-22T10:42:00;0.00;;;0.00;;
51080;SDS011;37130;55.670;37.596;2023-07-22T10:44:37;0.00;;;0.00;;
51080;SDS011;37130;55.670;37.596;2023-07-22T10:47:07;0.00;;;0.00;;
51080;SDS011;37130;55.670;37.596;2023-07-22T10:49:44;0.00;;;0.00;;
51080;SDS011;37130;55.670;37.596;2023-07-22T10:52:14;0.00;;;0.00;;
51080;SDS011;37130;55.670;37.596;2023-07-22T10:54:41;0.00;;;0.00;;
51080;SDS011;37130;55.670;37.596;2023-07-22T10:57:27;0.00;;;0.00;;
51080;SDS011;37130;55.670;37.596;2023-07-22T10:59:55;0.00;;;0.00;;
51080;SDS011;37130;55.670;37.596;2023-07-22T11:02:24;0.00;;;0.00;;
51080;SDS011;37130;55.670;37.596;2023-07-22T11:04:56;0.00;;;0.00;;
51080;SDS011;37130;55.670;37.596;2023-07-22T11:07:34;0.00;;;0.00;;
51080;SDS011;37130;55.670;37.596;2023-07-22T11:10:17;0.00;;;0.00;;
51080;SDS011;37130;55.670;37.596;2023-07-22T11:12:46;0.00;;;0.00;;
51080;SDS011;37130;55.670;37.596;2023-07-22T11:15:16;0.00;;;0.00;;
51080;SDS011;37130;55.670;37.596;2023-07-22T11:17:45;0.00;;;0.00;;
51080;SDS011;37130;55.670;37.596;2023-07-22T11:20:13;0.00;;;0.00;;
51080;SDS011;37130;55.670;37.596;2023-07-22T11:22:40;0.00;;;0.00;;
51080;SDS011;37130;55.670;37.596;2023-07-22T11:25:09;0.00;;;0.00;;
51080;SDS011;37130;55.670;37.596;2023-07-22T11:27:37;0.00;;;0.00;;
51080;SDS011;37130;55.670;37.596;2023-07-22T11:30:06;0.00;;;0.00;;
51080;SDS011;37130;55.670;37.596;2023-07-22T11:32:34;0.00;;;0.00;;
51080;SDS011;37130;55.670;37.596;2023-07-22T11:35:02;0.00;;;0.00;;
51080;SDS011;37130;55.670;37.596;2023-07-22T11:37:31;0.00;;;0.00;;
51080;SDS011;37130;55.670;37.596;2023-07-22T11:40:01;0.00;;;0.00;;
51080;SDS011;37130;55.670;37.596;2023-07-22T11:42:33;0.00;;;0.00;;
51080;SDS011;37130;55.670;37.596;2023-07-22T11:45:02;0.00;;;0.00;;
51080;SDS011;37130;55.670;37.596;2023-07-22T11:47:32;0.00;;;0.00;;
51080;SDS011;37130;55.670;37.596;2023-07-22T11:50:00;0.00;;;0.00;;
51080;SDS011;37130;55.670;37.596;2023-07-22T11:52:31;0.00;;;0.00;;
51080;SDS011;37130;55.670;37.596;2023-07-22T11:54:59;0.00;;;0.00;;
51080;SDS011;37130;55.670;37.596;2023-07-22T11:57:31;0.00;;;0.00;;
51080;SDS011;37130;55.670;37.596;2023-07-22T11:59:59;0.00;;;0.00;;
51080;SDS011;37130;55.670;37.596;2023-07-22T12:02:27;0.00;;;0.00;;
51080;SDS011;37130;55.670;37.596;2023-07-22T12:05:04;0.00;;;0.00;;
51080;SDS011;37130;55.670;37.596;2023-07-22T12:07:37;0.00;;;0.00;;
51080;SDS011;37130;55.670;37.596;2023-07-22T12:10:05;0.00;;;0.00;;
51080;SDS011;37130;55.670;37.596;2023-07-22T12:12:35;0.00;;;0.00;;
51080;SDS011;37130;55.670;37.596;2023-07-22T12:15:09;0.00;;;0.00;;
51080;SDS011;37130;55.670;37.596;2023-07-22T12:17:45;0.00;;;0.00;;
51080;SDS011;37130;55.670;37.596;2023-07-22T12:20:17;0.00;;;0.00;;
51080;SDS011;37130;55.670;37.596;2023-07-22T12:22:46;0.00;;;0.00;;
51080;SDS011;37130;55.670;37.596;2023-07-22T12:25:13;0.00;;;0.00;;
51080;SDS011;37130;55.670;37.596;2023-07-22T12:27:41;0.00;;;0.00;;
51080;SDS011;37130;55.670;37.596;2023-07-22T12:30:09;0.00;;;0.00;;
51080;SDS011;37130;55.670;37.596;2023-07-22T12:32:37;0.00;;;0.00;;
51080;SDS011;37130;55.670;37.596;2023-07-22T12:35:05;0.00;;;0.00;;
51080;SDS011;37130;55.670;37.596;2023-07-22T12:37:33;0.00;;;0.00;;
51080;SDS011;37130;55.670;37.596;2023-07-22T12:40:01;0.00;;;0.00;;
51080;SDS011;37130;55.670;37.596;2023-07-22T12:42:31;0.00;;;0.00;;
51080;SDS011;37130;55.670;37.596;2023-07-22T12:44:59;0.00;;;0.00;;
51080;SDS011;37130;55.670;37.596;2023-07-22T12:47:31;0.00;;;0.00;;
51080;SDS011;37130;55.670;37.596;2023-07-22T12:49:59;0.00;;;0.00;;
51080;SDS011;37130;55.670;37.596;2023-07-22T12:52:29;0.00;;;0.00;;
51080;SDS011;37130;55.670;37.596;2023-07-22T12:54:57;0.00;;;0.00;;
51080;SDS011;37130;55.670;37.596;2023-07-22T12:57:24;0.00;;;0.00;;
51080;SDS011;37130;55.670;37.596;2023-07-22T12:59:52;0.00;;;0.00;;
51080;SDS011;37130;55.670;37.596;2023-07-22T13:02:19;0.00;;;0.00;;
51080;SDS011;37130;55.670;37.596;2023-07-22T13:04:47;0.00;;;0.00;;
51080;SDS011;37130;55.670;37.596;2023-07-22T13:07:15;0.00;;;0.00;;
51080;SDS011;37130;55.670;37.596;2023-07-22T13:09:45;0.00;;;0.00;;
51080;SDS011;37130;55.670;37.596;2023-07-22T13:12:15;0.00;;;0.00;;
51080;SDS011;37130;55.670;37.596;2023-07-22T13:14:43;0.00;;;0.00;;
51080;SDS011;37130;55.670;37.596;2023-07-22T13:17:10;0.00;;;0.00;;
51080;SDS011;37130;55.670;37.596;2023-07-22T13:19:39;0.00;;;0.00;;
51080;SDS011;37130;55.670;37.596;2023-07-22T13:22:07;0.00;;;0.00;;
51080;SDS011;37130;55.670;37.596;2023-07-22T13:24:34;0.00;;;0.00;;
51080;SDS011;37130;55.670;37.596;2023-07-22T13:27:03;0.00;;;0.00;;
51080;SDS011;37130;55.670;37.596;2023-07-22T13:29:31;0.00;;;0.00;;
51080;SDS011;37130;55.670;37.596;2023-07-22T13:31:58;0.00;;;0.00;;
51080;SDS011;37130;55.670;37.596;2023-07-22T13:34:26;0.00;;;0.00;;
51080;SDS011;37130;55.670;37.596;2023-07-22T13:36:54;0.00;;;0.00;;
51080;SDS011;37130;55.670;37.596;2023-07-22T13:39:22;0.00;;;0.00;;
51080;SDS011;37130;55.670;37.596;2023-07-22T13:41:50;0.00;;;0.00;;
51080;SDS011;37130;55.670;37.596;2023-07-22T13:44:18;0.00;;;0.00;;
51080;SDS011;37130;55.670;37.596;2023-07-22T13:46:46;0.00;;;0.00;;
51080;SDS011;37130;55.670;37.596;2023-07-22T13:49:15;0.00;;;0.00;;
51080;SDS011;37130;55.670;37.596;2023-07-22T13:51:42;0.00;;;0.00;;
51080;SDS011;37130;55.670;37.596;2023-07-22T13:54:09;0.00;;;0.00;;
51080;SDS011;37130;55.670;37.596;2023-07-22T13:56:37;0.00;;;0.00;;
51080;SDS011;37130;55.670;37.596;2023-07-22T13:59:05;0.00;;;0.00;;
51080;SDS011;37130;55.670;37.596;2023-07-22T14:01:32;0.00;;;0.00;;
51080;SDS011;37130;55.670;37.596;2023-07-22T14:04:00;0.00;;;0.00;;
51080;SDS011;37130;55.670;37.596;2023-07-22T14:06:28;0.00;;;0.00;;
51080;SDS011;37130;55.670;37.596;2023-07-22T14:08:58;0.00;;;0.00;;
51080;SDS011;37130;55.670;37.596;2023-07-22T14:11:26;0.00;;;0.00;;
51080;SDS011;37130;55.670;37.596;2023-07-22T14:13:53;0.00;;;0.00;;
51080;SDS011;37130;55.670;37.596;2023-07-22T14:16:21;0.00;;;0.00;;
51080;SDS011;37130;55.670;37.596;2023-07-22T14:18:49;0.00;;;0.00;;
51080;SDS011;37130;55.670;37.596;2023-07-22T14:21:19;0.00;;;0.00;;
51080;SDS011;37130;55.670;37.596;2023-07-22T14:23:47;0.00;;;0.00;;
51080;SDS011;37130;55.670;37.596;2023-07-22T14:26:14;0.00;;;0.00;;
51080;SDS011;37130;55.670;37.596;2023-07-22T14:28:42;0.00;;;0.00;;
51080;SDS011;37130;55.670;37.596;2023-07-22T14:31:09;0.00;;;0.00;;
51080;SDS011;37130;55.670;37.596;2023-07-22T14:33:37;0.00;;;0.00;;
51080;SDS011;37130;55.670;37.596;2023-07-22T14:36:05;0.00;;;0.00;;
51080;SDS011;37130;55.670;37.596;2023-07-22T14:38:33;0.00;;;0.00;;
51080;SDS011;37130;55.670;37.596;2023-07-22T14:41:00;0.00;;;0.00;;